Time;durP1;ratioP1;P1;durP2;ratioP2;P2;SDS_P1;SDS_P2;PMS_P1;PMS_P2;Temp;Humidity;BMP_temperature;BMP_pressure;BME280_temperature;BME280_humidity;BME280_pressure;Samples;Min_cycle;Max_cycle;Signal;HPM_P1;HPM_P2
2021/09/02 00:00:18;;;;;;;9.70;5.30;;;13.50;92.70;;;;;;5013781;28;20417;-73
2021/09/02 00:02:44;;;;;;;11.10;6.13;;;13.50;92.60;;;;;;5014308;28;20448;-71
2021/09/02 00:05:10;;;;;;;9.03;6.33;;;13.50;92.70;;;;;;5009684;28;20277;-72
2021/09/02 00:07:36;;;;;;;8.60;5.80;;;13.40;92.70;;;;;;5013258;28;20189;-71
2021/09/02 00:10:03;;;;;;;9.60;5.90;;;13.40;92.80;;;;;;5012500;28;20659;-72
2021/09/02 00:12:29;;;;;;;12.90;6.43;;;13.40;92.90;;;;;;5005988;28;20429;-72
2021/09/02 00:14:54;;;;;;;11.90;6.60;;;13.40;93.00;;;;;;5013113;28;20428;-72
2021/09/02 00:17:20;;;;;;;10.23;6.73;;;13.40;93.10;;;;;;5013278;28;20210;-70
2021/09/02 00:19:46;;;;;;;9.87;5.33;;;13.30;93.10;;;;;;5013283;28;20269;-73
2021/09/02 00:22:12;;;;;;;11.00;6.23;;;13.30;93.10;;;;;;5012800;28;20248;-72
2021/09/02 00:24:37;;;;;;;9.00;5.90;;;13.30;93.10;;;;;;5014309;28;20292;-72
2021/09/02 00:27:03;;;;;;;10.90;6.00;;;13.30;93.20;;;;;;5014364;28;20201;-72
2021/09/02 00:29:30;;;;;;;10.10;6.30;;;13.30;93.10;;;;;;5008229;28;20701;-72
2021/09/02 00:31:56;;;;;;;9.40;6.27;;;13.20;93.10;;;;;;5014588;28;20476;-72
2021/09/02 00:34:21;;;;;;;10.50;5.93;;;13.20;93.20;;;;;;5013325;28;20444;-73
2021/09/02 00:36:47;;;;;;;9.60;6.00;;;13.20;93.40;;;;;;5011853;28;20559;-72
2021/09/02 00:39:13;;;;;;;10.53;5.90;;;13.20;93.40;;;;;;5012804;28;20668;-74
2021/09/02 00:41:39;;;;;;;12.97;5.93;;;13.10;93.40;;;;;;5006347;28;20534;-74
2021/09/02 00:44:04;;;;;;;10.23;6.53;;;13.10;93.50;;;;;;5012896;28;20719;-75
2021/09/02 00:46:30;;;;;;;10.13;5.83;;;13.10;93.50;;;;;;5013392;28;20676;-72
2021/09/02 00:48:57;;;;;;;11.00;5.83;;;13.10;93.50;;;;;;5012420;28;20699;-72
2021/09/02 00:51:23;;;;;;;11.80;6.10;;;13.10;93.60;;;;;;5011170;28;20673;-72
2021/09/02 00:53:51;;;;;;;10.57;6.40;;;13.10;93.70;;;;;;5012654;28;20531;-71
2021/09/02 00:56:17;;;;;;;12.20;6.53;;;13.00;93.70;;;;;;5012908;28;20501;-70
2021/09/02 00:58:50;;;;;;;9.30;6.67;;;13.00;93.70;;;;;;5012715;28;20425;-72
2021/09/02 01:01:17;;;;;;;10.93;6.60;;;13.00;93.70;;;;;;5012129;28;20468;-72
2021/09/02 01:03:44;;;;;;;11.60;6.70;;;12.90;93.80;;;;;;5012009;28;20531;-74
2021/09/02 01:06:09;;;;;;;13.13;6.67;;;12.90;93.90;;;;;;5012100;28;20431;-72
2021/09/02 01:08:36;;;;;;;13.50;6.50;;;12.90;94.00;;;;;;5011925;28;20417;-72
2021/09/02 01:11:02;;;;;;;9.80;6.43;;;12.80;94.10;;;;;;5012027;28;20263;-72
2021/09/02 01:13:29;;;;;;;9.57;6.03;;;12.80;94.20;;;;;;5011830;28;20448;-72
2021/09/02 01:15:55;;;;;;;12.00;6.40;;;12.80;94.20;;;;;;5012474;28;20425;-70
2021/09/02 01:18:21;;;;;;;11.60;6.93;;;12.70;94.40;;;;;;5010839;28;20524;-72
2021/09/02 01:20:47;;;;;;;13.40;7.00;;;12.70;94.40;;;;;;5012907;28;20185;-72
2021/09/02 01:23:22;;;;;;;11.63;6.90;;;12.70;94.60;;;;;;5011079;28;20461;-72
2021/09/02 01:25:49;;;;;;;9.17;6.30;;;12.70;94.70;;;;;;5011045;28;20634;-72
2021/09/02 01:28:15;;;;;;;13.23;7.23;;;12.60;94.60;;;;;;5010894;28;20490;-71
2021/09/02 01:30:42;;;;;;;13.67;6.87;;;12.50;94.90;;;;;;5011688;28;20469;-71
2021/09/02 01:33:09;;;;;;;14.70;7.97;;;12.30;95.20;;;;;;5012325;28;20484;-72
2021/09/02 01:35:35;;;;;;;12.03;6.50;;;12.20;95.60;;;;;;5011779;28;20421;-74
2021/09/02 01:38:05;;;;;;;11.30;7.13;;;12.20;95.90;;;;;;5011968;28;20783;-72
2021/09/02 01:40:36;;;;;;;13.77;7.83;;;12.20;96.00;;;;;;5004290;28;20429;-71
2021/09/02 01:43:03;;;;;;;15.50;7.53;;;12.20;96.10;;;;;;5010940;28;20453;-72
2021/09/02 01:45:29;;;;;;;12.70;7.00;;;12.20;96.10;;;;;;5012123;28;20429;-72
2021/09/02 01:47:57;;;;;;;10.93;6.97;;;12.20;96.10;;;;;;5026404;28;20972;-72
2021/09/02 01:50:24;;;;;;;14.80;7.43;;;12.20;96.10;;;;;;5012323;28;20981;-71
2021/09/02 01:52:53;;;;;;;12.17;7.23;;;12.20;96.10;;;;;;5011577;28;20459;-72
2021/09/02 01:55:20;;;;;;;13.80;7.63;;;12.20;96.30;;;;;;5011085;28;20424;-72
2021/09/02 01:57:46;;;;;;;10.67;7.40;;;12.20;96.40;;;;;;5012488;28;20436;-72
2021/09/02 02:00:14;;;;;;;13.43;7.90;;;12.20;96.40;;;;;;5012087;28;20434;-72
2021/09/02 02:02:40;;;;;;;11.00;7.40;;;12.30;96.40;;;;;;5005012;28;20202;-71
2021/09/02 02:05:07;;;;;;;13.17;7.50;;;12.30;96.30;;;;;;5011459;28;20954;-71
2021/09/02 02:07:33;;;;;;;12.00;7.73;;;12.30;96.20;;;;;;5011001;28;20431;-71
2021/09/02 02:09:59;;;;;;;13.43;7.00;;;12.30;95.90;;;;;;5011208;28;20433;-73
2021/09/02 02:12:25;;;;;;;13.90;8.57;;;12.30;95.90;;;;;;5012165;28;20478;-73
2021/09/02 02:14:51;;;;;;;12.90;8.00;;;12.30;95.90;;;;;;5011425;28;20252;-73
2021/09/02 02:17:16;;;;;;;14.00;7.73;;;12.20;95.90;;;;;;5011562;28;20221;-73
2021/09/02 02:19:42;;;;;;;10.83;7.07;;;12.20;95.90;;;;;;5011119;28;20178;-73
2021/09/02 02:22:08;;;;;;;15.60;7.93;;;12.20;95.90;;;;;;5011776;28;20233;-72
2021/09/02 02:24:33;;;;;;;12.00;7.47;;;12.20;95.90;;;;;;5010972;28;20209;-72
2021/09/02 02:26:59;;;;;;;12.50;7.40;;;12.20;95.70;;;;;;5010945;28;20185;-73
2021/09/02 02:29:25;;;;;;;15.90;7.03;;;12.20;95.60;;;;;;5009970;28;20250;-73
2021/09/02 02:31:51;;;;;;;19.13;6.80;;;12.20;95.80;;;;;;5012922;28;20224;-73
2021/09/02 02:34:17;;;;;;;12.47;7.33;;;12.20;95.70;;;;;;5013458;28;20324;-72
2021/09/02 02:36:44;;;;;;;14.00;7.70;;;12.20;95.40;;;;;;5013268;28;20413;-73
2021/09/02 02:39:09;;;;;;;11.77;7.77;;;12.10;95.30;;;;;;5013995;28;20417;-73
2021/09/02 02:41:35;;;;;;;14.03;8.53;;;12.00;95.50;;;;;;5015523;28;20435;-73
2021/09/02 02:44:01;;;;;;;13.93;7.33;;;12.00;95.60;;;;;;5013386;28;20307;-72
2021/09/02 02:46:27;;;;;;;12.70;7.50;;;11.90;95.80;;;;;;5013824;28;21087;-72
2021/09/02 02:48:54;;;;;;;10.50;7.20;;;11.80;96.00;;;;;;5012512;28;20197;-73
2021/09/02 02:51:19;;;;;;;12.33;7.40;;;11.80;96.10;;;;;;5009927;28;20486;-72
2021/09/02 02:53:45;;;;;;;12.97;7.33;;;11.70;96.20;;;;;;5010135;28;20432;-74
2021/09/02 02:56:11;;;;;;;12.10;7.60;;;11.70;96.40;;;;;;5010505;28;20185;-75
2021/09/02 02:58:36;;;;;;;21.50;9.13;;;11.70;96.60;;;;;;5009968;28;20252;-72
2021/09/02 03:01:02;;;;;;;14.37;7.47;;;11.70;96.80;;;;;;5010144;28;20189;-73
2021/09/02 03:03:28;;;;;;;17.93;8.57;;;11.70;96.80;;;;;;5010018;28;21021;-73
2021/09/02 03:05:54;;;;;;;12.00;7.40;;;11.80;96.70;;;;;;5010156;28;20209;-73
2021/09/02 03:08:19;;;;;;;14.87;8.30;;;11.80;96.60;;;;;;5009953;28;20895;-73
2021/09/02 03:10:45;;;;;;;12.77;7.63;;;11.80;96.40;;;;;;5009672;28;20204;-72
2021/09/02 03:13:11;;;;;;;11.70;7.67;;;11.70;96.70;;;;;;5010111;28;20213;-73
2021/09/02 03:15:37;;;;;;;14.33;8.03;;;11.70;96.70;;;;;;5010205;28;20173;-74
2021/09/02 03:18:03;;;;;;;16.33;8.50;;;11.70;96.70;;;;;;5010629;28;20552;-74
2021/09/02 03:20:29;;;;;;;14.47;7.70;;;11.80;96.70;;;;;;5009705;28;20181;-72
2021/09/02 03:22:54;;;;;;;12.20;7.87;;;11.80;96.10;;;;;;5010103;28;20459;-72
2021/09/02 03:25:28;;;;;;;15.30;8.70;;;11.60;96.00;;;;;;5009057;28;20428;-73
2021/09/02 03:27:53;;;;;;;12.93;8.03;;;11.60;96.20;;;;;;5009013;28;20715;-74
2021/09/02 03:30:19;;;;;;;17.93;7.70;;;11.50;96.10;;;;;;5009272;28;20461;-74
2021/09/02 03:32:45;;;;;;;12.30;8.17;;;11.40;96.20;;;;;;5009725;28;20231;-73
2021/09/02 03:35:11;;;;;;;13.60;8.53;;;11.40;96.40;;;;;;5009563;28;20186;-73
2021/09/02 03:37:36;;;;;;;14.93;8.37;;;11.40;96.60;;;;;;5009833;28;20178;-74
2021/09/02 03:40:04;;;;;;;14.03;8.13;;;11.50;96.70;;;;;;5007727;28;20201;-73
2021/09/02 03:42:30;;;;;;;13.00;8.33;;;11.50;96.60;;;;;;5006974;28;20515;-73
2021/09/02 03:44:55;;;;;;;15.90;8.03;;;11.50;96.60;;;;;;5013537;28;20998;-73
2021/09/02 03:47:21;;;;;;;16.97;9.27;;;11.50;96.80;;;;;;5013672;28;20193;-73
2021/09/02 03:49:47;;;;;;;29.03;10.40;;;11.40;97.00;;;;;;5013005;28;20683;-75
2021/09/02 03:52:12;;;;;;;18.97;9.83;;;11.40;97.30;;;;;;5013461;28;20468;-73
2021/09/02 03:54:38;;;;;;;20.17;10.13;;;11.40;97.50;;;;;;5013549;28;20201;-72
2021/09/02 03:57:04;;;;;;;11.50;8.00;;;11.40;97.70;;;;;;5012578;28;20624;-76
2021/09/02 03:59:30;;;;;;;14.13;8.50;;;11.40;97.90;;;;;;5009121;28;20190;-73
2021/09/02 04:01:56;;;;;;;18.03;8.73;;;11.40;97.80;;;;;;5013489;28;20424;-74
2021/09/02 04:04:22;;;;;;;13.90;8.30;;;11.50;97.30;;;;;;5013152;28;20684;-73
2021/09/02 04:06:47;;;;;;;12.67;8.10;;;11.50;97.20;;;;;;5013499;28;20182;-73
2021/09/02 04:09:13;;;;;;;14.50;9.30;;;11.40;96.90;;;;;;5012703;28;20228;-73
2021/09/02 04:11:39;;;;;;;14.10;8.93;;;11.50;97.00;;;;;;5012686;28;20244;-74
2021/09/02 04:14:04;;;;;;;14.53;8.33;;;11.40;97.20;;;;;;5013653;28;20293;-73
2021/09/02 04:16:30;;;;;;;15.93;8.27;;;11.40;97.30;;;;;;5012867;28;20237;-71
2021/09/02 04:18:56;;;;;;;13.00;8.40;;;11.50;96.80;;;;;;5009883;28;20632;-74
2021/09/02 04:21:22;;;;;;;14.40;8.10;;;11.40;96.50;;;;;;5012699;28;20192;-72
2021/09/02 04:23:49;;;;;;;12.63;7.90;;;11.40;96.30;;;;;;5013734;28;20201;-72
2021/09/02 04:26:15;;;;;;;16.80;8.70;;;11.40;96.00;;;;;;5014034;28;20216;-72
2021/09/02 04:28:41;;;;;;;15.47;8.43;;;11.30;95.90;;;;;;5014354;28;20420;-73
2021/09/02 04:31:07;;;;;;;12.37;7.40;;;11.30;96.00;;;;;;5013663;28;20495;-72
2021/09/02 04:33:33;;;;;;;18.47;8.80;;;11.30;96.00;;;;;;5014232;28;20444;-73
2021/09/02 04:35:58;;;;;;;14.27;8.47;;;11.30;96.20;;;;;;5012559;28;20186;-72
2021/09/02 04:38:24;;;;;;;12.30;7.90;;;11.20;96.40;;;;;;5010849;28;20188;-73
2021/09/02 04:40:51;;;;;;;16.70;9.50;;;11.20;96.70;;;;;;5022070;28;20656;-72
2021/09/02 04:43:18;;;;;;;16.83;8.90;;;11.20;96.80;;;;;;5012335;28;20213;-72
2021/09/02 04:45:43;;;;;;;18.30;8.87;;;11.20;97.00;;;;;;5014598;28;20420;-77
2021/09/02 04:48:20;;;;;;;16.77;8.53;;;11.20;97.30;;;;;;5015269;28;20528;-76
2021/09/02 04:50:48;;;;;;;13.63;8.77;;;11.30;97.30;;;;;;5013137;28;20193;-76
2021/09/02 04:53:15;;;;;;;13.93;9.30;;;11.30;97.20;;;;;;5013789;28;20452;-77
2021/09/02 04:55:41;;;;;;;14.30;9.27;;;11.20;97.00;;;;;;5013140;28;20513;-76
2021/09/02 04:58:09;;;;;;;12.33;8.60;;;11.10;96.80;;;;;;5012625;28;20445;-76
2021/09/02 05:00:37;;;;;;;16.47;8.70;;;11.10;97.10;;;;;;5015437;28;20181;-78
2021/09/02 05:03:04;;;;;;;17.23;7.73;;;11.10;97.20;;;;;;5012792;28;21032;-76
2021/09/02 05:05:30;;;;;;;15.60;8.47;;;11.10;97.10;;;;;;5013584;28;20497;-76
2021/09/02 05:07:56;;;;;;;16.43;8.50;;;11.10;96.80;;;;;;5013077;28;20452;-77
2021/09/02 05:10:22;;;;;;;14.47;8.80;;;11.10;96.70;;;;;;5013968;28;21040;-76
2021/09/02 05:12:49;;;;;;;14.37;8.77;;;11.10;96.60;;;;;;5014524;28;20487;-73
2021/09/02 05:15:15;;;;;;;12.27;7.97;;;11.10;96.80;;;;;;5010438;28;20444;-71
2021/09/02 05:17:40;;;;;;;12.70;8.10;;;11.20;96.90;;;;;;5013270;28;20433;-73
2021/09/02 05:20:07;;;;;;;15.40;9.47;;;11.20;96.90;;;;;;4997670;28;20433;-72
2021/09/02 05:22:33;;;;;;;15.13;8.67;;;11.20;97.00;;;;;;5013395;28;20569;-71
2021/09/02 05:24:59;;;;;;;14.10;8.57;;;11.30;97.10;;;;;;5008172;28;20433;-74
2021/09/02 05:27:24;;;;;;;16.40;9.50;;;11.30;97.00;;;;;;5012687;28;20855;-73
2021/09/02 05:29:50;;;;;;;16.40;10.00;;;11.30;97.00;;;;;;5013293;28;20186;-72
2021/09/02 05:32:16;;;;;;;17.27;9.80;;;11.40;97.00;;;;;;5013657;28;20206;-72
2021/09/02 05:34:42;;;;;;;20.00;10.37;;;11.60;97.00;;;;;;5014023;28;20205;-72
2021/09/02 05:37:08;;;;;;;17.27;10.20;;;11.50;96.90;;;;;;5014910;28;20197;-72
2021/09/02 05:39:34;;;;;;;18.43;9.57;;;11.40;96.70;;;;;;5012295;28;20188;-74
2021/09/02 05:41:59;;;;;;;19.63;10.17;;;11.50;96.80;;;;;;5013022;28;20453;-71
2021/09/02 05:44:25;;;;;;;15.03;8.67;;;11.50;96.70;;;;;;5012770;28;20487;-73
2021/09/02 05:46:51;;;;;;;19.70;10.90;;;11.40;96.70;;;;;;5013215;28;20197;-72
2021/09/02 05:49:17;;;;;;;16.67;9.63;;;11.50;97.00;;;;;;5006159;28;20256;-71
2021/09/02 05:51:43;;;;;;;16.30;9.47;;;11.60;97.00;;;;;;5012696;28;20208;-73
2021/09/02 05:54:08;;;;;;;16.17;9.30;;;11.70;96.40;;;;;;5012026;28;20518;-76
2021/09/02 05:56:34;;;;;;;17.53;9.43;;;11.70;96.30;;;;;;5006914;28;20239;-72
2021/09/02 05:59:00;;;;;;;17.13;9.50;;;11.70;96.30;;;;;;5010955;28;20276;-72
2021/09/02 06:01:26;;;;;;;17.67;10.10;;;11.70;96.50;;;;;;5012253;28;20185;-71
2021/09/02 06:03:51;;;;;;;20.07;10.73;;;11.80;96.70;;;;;;5007830;28;20214;-74
2021/09/02 06:06:17;;;;;;;21.83;11.90;;;11.90;96.70;;;;;;5010543;28;20190;-73
2021/09/02 06:08:42;;;;;;;17.60;10.13;;;12.00;96.60;;;;;;5010978;28;20203;-74
2021/09/02 06:11:08;;;;;;;19.43;10.80;;;12.00;96.30;;;;;;5012345;28;20194;-73
2021/09/02 06:13:34;;;;;;;21.07;10.70;;;12.00;96.40;;;;;;5011609;28;20546;-73
2021/09/02 06:16:01;;;;;;;18.07;10.60;;;12.00;96.50;;;;;;5010707;28;20185;-74
2021/09/02 06:18:27;;;;;;;17.30;9.60;;;12.10;96.10;;;;;;5012146;28;20546;-73
2021/09/02 06:20:53;;;;;;;19.53;10.87;;;12.20;95.70;;;;;;5011981;28;20844;-73
2021/09/02 06:23:19;;;;;;;17.80;10.67;;;12.20;95.40;;;;;;5011589;28;20480;-73
2021/09/02 06:25:44;;;;;;;17.50;10.77;;;12.20;95.40;;;;;;5011810;28;20262;-72
2021/09/02 06:28:11;;;;;;;17.33;10.50;;;12.20;95.50;;;;;;5011855;28;20553;-72
2021/09/02 06:30:37;;;;;;;15.80;10.13;;;12.20;95.60;;;;;;5011625;28;20702;-70
2021/09/02 06:33:03;;;;;;;21.37;11.30;;;12.30;95.50;;;;;;5012656;28;20503;-71
2021/09/02 06:35:28;;;;;;;22.80;10.97;;;12.40;95.50;;;;;;5007969;28;20420;-72
2021/09/02 06:37:54;;;;;;;21.20;11.70;;;12.50;95.60;;;;;;5010453;28;20213;-72
2021/09/02 06:40:20;;;;;;;17.33;11.13;;;12.50;95.50;;;;;;5011354;28;20675;-73
2021/09/02 06:42:46;;;;;;;26.47;13.57;;;12.60;95.40;;;;;;5011832;28;20209;-75
2021/09/02 06:45:12;;;;;;;23.00;13.20;;;12.70;95.50;;;;;;5012012;28;20228;-72
2021/09/02 06:47:39;;;;;;;23.80;13.40;;;12.80;95.30;;;;;;5008652;28;20547;-72
2021/09/02 06:50:09;;;;;;;23.60;12.27;;;12.80;95.30;;;;;;5007186;28;20489;-72
2021/09/02 06:52:35;;;;;;;21.60;12.07;;;12.90;95.10;;;;;;5012509;28;20429;-72
2021/09/02 06:55:02;;;;;;;24.00;14.03;;;13.00;95.10;;;;;;5019766;28;20500;-72
2021/09/02 06:57:28;;;;;;;28.07;13.77;;;13.00;95.10;;;;;;5023752;28;20412;-71
2021/09/02 06:59:55;;;;;;;20.70;12.87;;;13.10;94.90;;;;;;5013887;28;20413;-72
2021/09/02 07:02:21;;;;;;;26.40;15.27;;;13.10;94.70;;;;;;5011515;28;20835;-72
2021/09/02 07:04:47;;;;;;;25.80;14.47;;;13.20;94.40;;;;;;5010871;28;20445;-71
2021/09/02 07:07:12;;;;;;;21.90;13.03;;;13.20;94.20;;;;;;5003404;28;20241;-72
2021/09/02 07:09:38;;;;;;;22.30;13.23;;;13.30;94.30;;;;;;5005221;28;20193;-72
2021/09/02 07:12:04;;;;;;;25.93;14.40;;;13.30;94.40;;;;;;5011196;28;20205;-72
2021/09/02 07:14:31;;;;;;;24.23;12.60;;;13.40;94.30;;;;;;5011421;28;20339;-73
2021/09/02 07:16:57;;;;;;;30.80;14.90;;;13.40;94.10;;;;;;5008023;28;20491;-73
2021/09/02 07:19:23;;;;;;;25.20;14.23;;;13.40;93.90;;;;;;5011712;28;20445;-75
2021/09/02 07:21:48;;;;;;;29.97;14.60;;;13.50;94.10;;;;;;5012283;28;20421;-74
2021/09/02 07:24:15;;;;;;;26.37;13.30;;;13.60;93.60;;;;;;5012078;28;20235;-72
2021/09/02 07:26:41;;;;;;;27.60;14.17;;;13.60;93.60;;;;;;5012619;28;20391;-74
2021/09/02 07:29:08;;;;;;;25.63;14.23;;;13.70;93.20;;;;;;5012336;28;20487;-72
2021/09/02 07:31:35;;;;;;;33.13;14.87;;;13.90;93.00;;;;;;5012390;28;20198;-71
2021/09/02 07:34:02;;;;;;;24.90;13.60;;;13.90;92.70;;;;;;5011900;28;20441;-71
2021/09/02 07:36:27;;;;;;;24.43;13.17;;;14.00;92.40;;;;;;5010875;28;20456;-73
2021/09/02 07:38:53;;;;;;;30.10;14.17;;;14.10;92.20;;;;;;5011857;28;20424;-72
2021/09/02 07:41:19;;;;;;;23.70;13.80;;;14.20;92.20;;;;;;5012657;28;20420;-72
2021/09/02 07:43:45;;;;;;;23.43;12.93;;;14.20;91.70;;;;;;5018993;28;20440;-73
2021/09/02 07:46:11;;;;;;;25.87;13.17;;;14.30;91.50;;;;;;5025077;28;20439;-73
2021/09/02 07:48:37;;;;;;;23.33;12.50;;;14.40;91.80;;;;;;5013980;28;20178;-73
2021/09/02 07:51:03;;;;;;;27.83;12.73;;;14.50;91.60;;;;;;5011328;28;20698;-72
2021/09/02 07:53:30;;;;;;;26.90;13.17;;;14.60;91.40;;;;;;5011564;28;20202;-72
2021/09/02 07:55:56;;;;;;;30.90;14.30;;;14.80;91.20;;;;;;5010924;28;20511;-72
2021/09/02 07:58:21;;;;;;;20.00;12.87;;;14.80;91.20;;;;;;5010767;28;20420;-73
2021/09/02 08:00:48;;;;;;;23.77;13.03;;;14.90;91.10;;;;;;5006692;28;20417;-72
2021/09/02 08:03:14;;;;;;;21.87;12.90;;;15.00;90.70;;;;;;5009380;28;20225;-71
2021/09/02 08:05:40;;;;;;;25.10;13.23;;;15.10;90.40;;;;;;5010548;28;20432;-72
2021/09/02 08:08:06;;;;;;;20.07;13.30;;;15.20;90.20;;;;;;5010450;28;20192;-71
2021/09/02 08:10:32;;;;;;;23.27;13.83;;;15.20;89.90;;;;;;5009425;28;20251;-72
2021/09/02 08:12:58;;;;;;;23.00;13.03;;;15.30;88.60;;;;;;5006759;28;20444;-73
2021/09/02 08:15:24;;;;;;;23.37;13.27;;;15.40;88.00;;;;;;5010222;28;20909;-74
2021/09/02 08:17:51;;;;;;;23.50;12.83;;;15.50;88.30;;;;;;5010739;28;20507;-73
2021/09/02 08:20:17;;;;;;;27.90;14.10;;;15.50;88.30;;;;;;5010395;28;20455;-72
2021/09/02 08:22:43;;;;;;;23.53;14.43;;;15.50;87.80;;;;;;5010269;28;20440;-72
2021/09/02 08:25:11;;;;;;;24.20;13.30;;;15.70;87.10;;;;;;5008692;28;20451;-74
2021/09/02 08:27:39;;;;;;;23.33;14.17;;;15.90;86.20;;;;;;5011260;28;20428;-74
2021/09/02 08:30:05;;;;;;;23.63;13.53;;;16.00;86.20;;;;;;5007210;28;20434;-73
2021/09/02 08:32:31;;;;;;;20.67;12.23;;;16.10;85.90;;;;;;5013652;28;20476;-72
2021/09/02 08:34:57;;;;;;;28.80;13.03;;;16.20;85.70;;;;;;5010055;28;20853;-72
2021/09/02 08:37:23;;;;;;;27.80;13.10;;;16.30;85.30;;;;;;5014223;28;20191;-72
2021/09/02 08:39:50;;;;;;;24.23;13.27;;;16.40;83.80;;;;;;5008152;28;20199;-72
2021/09/02 08:42:16;;;;;;;30.67;16.10;;;16.50;83.40;;;;;;5013397;28;20603;-72
2021/09/02 08:44:43;;;;;;;26.53;12.43;;;16.50;83.30;;;;;;5014874;28;20474;-73
2021/09/02 08:47:10;;;;;;;22.83;11.90;;;16.50;83.10;;;;;;5015904;28;20190;-73
2021/09/02 08:49:36;;;;;;;19.27;11.80;;;16.60;83.30;;;;;;5014697;28;20415;-72
2021/09/02 08:52:03;;;;;;;19.93;12.20;;;16.80;82.80;;;;;;5012327;28;20457;-72
2021/09/02 08:54:30;;;;;;;22.43;11.67;;;16.80;82.10;;;;;;5011585;28;20469;-72
2021/09/02 08:56:56;;;;;;;20.70;10.80;;;16.90;82.40;;;;;;5013818;28;20461;-73
2021/09/02 08:59:22;;;;;;;18.43;12.10;;;17.00;82.10;;;;;;5012094;28;20457;-75
2021/09/02 09:01:49;;;;;;;21.97;11.63;;;17.20;81.70;;;;;;5013500;28;20182;-75
2021/09/02 09:04:15;;;;;;;28.33;11.83;;;17.30;80.90;;;;;;5013059;28;20216;-73
2021/09/02 09:06:42;;;;;;;19.60;10.30;;;17.40;80.90;;;;;;5013570;28;20776;-72
2021/09/02 09:09:25;;;;;;;19.30;10.87;;;17.50;79.90;;;;;;5013425;28;20424;-71
2021/09/02 09:11:51;;;;;;;15.67;10.30;;;17.50;79.60;;;;;;5013577;28;20472;-71
2021/09/02 09:14:23;;;;;;;16.60;10.77;;;17.70;80.00;;;;;;5013510;28;20814;-72
2021/09/02 09:16:58;;;;;;;19.73;11.70;;;17.80;79.70;;;;;;5006063;28;20205;-72
2021/09/02 09:19:39;;;;;;;17.10;10.90;;;18.00;78.90;;;;;;5012540;28;20443;-75
2021/09/02 09:22:08;;;;;;;18.57;11.17;;;18.10;78.00;;;;;;5010538;28;20423;-73
2021/09/02 09:24:53;;;;;;;20.30;11.20;;;18.20;77.80;;;;;;5013608;28;20446;-72
2021/09/02 09:27:22;;;;;;;17.50;9.77;;;18.40;77.10;;;;;;5012825;28;20423;-73
2021/09/02 09:30:04;;;;;;;20.50;10.77;;;18.40;76.50;;;;;;5010620;28;20942;-74
2021/09/02 09:32:43;;;;;;;17.73;9.50;;;18.50;76.40;;;;;;5005552;28;20846;-73
2021/09/02 09:35:13;;;;;;;16.03;9.10;;;18.60;76.10;;;;;;5014317;28;20403;-75
2021/09/02 09:37:39;;;;;;;16.10;9.10;;;18.70;75.90;;;;;;5012127;28;20500;-71
2021/09/02 09:40:19;;;;;;;13.30;8.50;;;18.80;75.50;;;;;;5010093;28;20450;-72
2021/09/02 09:43:02;;;;;;;14.03;8.70;;;18.90;75.20;;;;;;5011096;28;20470;-72
2021/09/02 09:45:35;;;;;;;14.20;9.40;;;18.90;74.80;;;;;;5012106;28;20420;-72
2021/09/02 09:48:01;;;;;;;15.53;9.43;;;19.00;75.10;;;;;;5006056;28;20426;-72
2021/09/02 09:50:27;;;;;;;16.23;9.13;;;19.10;74.60;;;;;;5011705;28;20415;-73
2021/09/02 09:52:53;;;;;;;17.83;8.93;;;19.20;73.90;;;;;;5012343;28;20567;-72
2021/09/02 09:55:20;;;;;;;14.73;9.13;;;19.30;73.70;;;;;;5011848;28;20179;-71
2021/09/02 09:57:47;;;;;;;13.80;8.33;;;19.40;73.50;;;;;;5010386;28;20463;-73
2021/09/02 10:00:18;;;;;;;15.10;8.63;;;19.40;72.40;;;;;;5011770;28;20779;-73
2021/09/02 10:02:50;;;;;;;13.33;8.50;;;19.50;72.90;;;;;;5007431;28;20429;-74
2021/09/02 10:05:19;;;;;;;11.67;7.70;;;19.60;72.10;;;;;;5009876;28;20475;-72
2021/09/02 10:07:50;;;;;;;13.00;8.27;;;19.70;71.40;;;;;;5017913;28;20421;-74
2021/09/02 10:10:17;;;;;;;12.43;8.17;;;19.80;71.40;;;;;;5013658;28;20421;-73
2021/09/02 10:12:44;;;;;;;12.50;7.87;;;19.80;70.50;;;;;;5014259;28;20471;-74
2021/09/02 10:15:13;;;;;;;17.20;8.80;;;19.80;70.50;;;;;;5011747;28;20432;-74
2021/09/02 10:17:40;;;;;;;14.47;8.00;;;19.90;70.80;;;;;;5009454;28;20447;-73
2021/09/02 10:20:22;;;;;;;12.80;8.77;;;19.90;70.70;;;;;;5010655;28;20827;-74
2021/09/02 10:22:58;;;;;;;14.47;8.83;;;20.00;69.50;;;;;;5004752;28;20456;-73
2021/09/02 10:25:31;;;;;;;10.33;7.33;;;20.10;69.40;;;;;;5009898;28;20420;-73
2021/09/02 10:28:11;;;;;;;12.93;7.30;;;20.10;68.60;;;;;;5010169;28;20834;-72
2021/09/02 10:30:49;;;;;;;10.40;6.63;;;20.20;67.00;;;;;;5003648;28;20518;-73
2021/09/02 10:33:42;;;;;;;10.87;6.73;;;20.30;65.60;;;;;;5010540;28;20811;-73
2021/09/02 10:36:11;;;;;;;12.50;7.00;;;20.50;65.60;;;;;;5009155;28;20928;-73
2021/09/02 10:38:40;;;;;;;11.37;6.63;;;20.60;64.50;;;;;;5009249;28;20452;-73
2021/09/02 10:41:07;;;;;;;10.03;6.37;;;20.70;64.70;;;;;;5009383;28;20441;-73
2021/09/02 10:43:52;;;;;;;12.10;7.90;;;21.10;63.90;;;;;;5010384;28;20460;-75
2021/09/02 10:46:37;;;;;;;11.43;7.53;;;21.60;62.80;;;;;;5002509;28;20424;-73
2021/09/02 10:49:16;;;;;;;13.20;7.30;;;22.00;60.40;;;;;;5009789;28;20441;-73
2021/09/02 10:51:44;;;;;;;13.20;6.70;;;22.20;59.70;;;;;;5010740;28;20474;-72
2021/09/02 10:54:13;;;;;;;10.33;6.30;;;22.40;60.10;;;;;;5009930;28;20880;-73
2021/09/02 10:56:58;;;;;;;11.13;7.03;;;22.80;60.30;;;;;;5010845;28;20510;-72
2021/09/02 10:59:50;;;;;;;12.27;7.53;;;23.20;59.60;;;;;;5010424;28;20436;-73
2021/09/02 11:02:15;;;;;;;13.30;7.40;;;23.40;58.50;;;;;;5030864;28;20412;-72
2021/09/02 11:04:41;;;;;;;12.40;8.17;;;23.50;58.20;;;;;;5017653;28;20450;-72
2021/09/02 11:07:07;;;;;;;11.43;7.40;;;23.40;57.70;;;;;;5010665;28;20192;-73
2021/09/02 11:09:36;;;;;;;12.07;6.87;;;23.40;58.40;;;;;;5009714;28;20788;-73
2021/09/02 11:12:05;;;;;;;9.80;6.20;;;23.70;57.30;;;;;;5010354;28;20597;-73
2021/09/02 11:14:31;;;;;;;9.60;6.50;;;24.00;55.20;;;;;;5002567;28;20464;-74
2021/09/02 11:17:05;;;;;;;10.47;6.43;;;24.10;54.50;;;;;;5010085;28;20973;-72
2021/09/02 11:19:33;;;;;;;10.07;6.10;;;24.30;51.60;;;;;;5002499;28;20499;-71
2021/09/02 11:22:16;;;;;;;9.90;5.80;;;24.40;49.50;;;;;;5010046;28;20778;-73
2021/09/02 11:24:47;;;;;;;7.60;5.70;;;24.50;50.30;;;;;;5012943;28;20452;-73
2021/09/02 11:27:27;;;;;;;8.80;6.03;;;24.60;49.40;;;;;;5009562;28;20439;-73
2021/09/02 11:29:53;;;;;;;9.90;5.60;;;24.30;50.50;;;;;;5010054;28;20840;-73
2021/09/02 11:32:25;;;;;;;8.17;5.73;;;24.40;50.70;;;;;;5010422;28;20510;-73
2021/09/02 11:35:00;;;;;;;7.87;5.20;;;24.60;50.10;;;;;;5010302;28;20431;-73
2021/09/02 11:37:45;;;;;;;8.63;5.60;;;25.00;49.50;;;;;;5009483;28;20425;-73
2021/09/02 11:40:23;;;;;;;8.10;5.90;;;25.30;49.00;;;;;;5010161;28;20529;-73
2021/09/02 11:42:50;;;;;;;9.07;6.30;;;25.40;48.70;;;;;;5014050;28;20956;-73
2021/09/02 11:45:17;;;;;;;9.73;5.60;;;25.20;48.70;;;;;;5009609;28;20481;-73
2021/09/02 11:47:44;;;;;;;9.00;5.60;;;25.00;49.10;;;;;;5009395;28;20432;-73
2021/09/02 11:50:10;;;;;;;12.00;6.20;;;25.00;48.70;;;;;;5009710;28;20432;-73
2021/09/02 11:52:44;;;;;;;11.20;6.27;;;25.00;49.30;;;;;;5008927;28;21074;-72
2021/09/02 11:55:27;;;;;;;8.30;5.17;;;25.40;48.70;;;;;;5011532;28;20636;-73
2021/09/02 11:57:55;;;;;;;7.70;6.00;;;25.60;47.80;;;;;;5006542;28;20433;-74
2021/09/02 12:00:21;;;;;;;8.33;5.57;;;25.70;47.50;;;;;;5012385;28;20421;-73
2021/09/02 12:02:52;;;;;;;6.57;5.00;;;25.60;47.00;;;;;;5011965;28;20787;-72
2021/09/02 12:05:20;;;;;;;9.10;5.43;;;25.40;46.70;;;;;;5011874;28;20442;-74
2021/09/02 12:07:48;;;;;;;7.73;5.20;;;25.20;47.40;;;;;;5004301;28;20459;-72
2021/09/02 12:10:17;;;;;;;16.83;9.60;;;25.10;47.70;;;;;;5012690;28;20451;-73
2021/09/02 12:12:42;;;;;;;10.40;6.10;;;25.20;48.10;;;;;;5013211;28;20541;-73
2021/09/02 12:15:27;;;;;;;15.23;9.27;;;25.00;48.10;;;;;;5012892;28;20903;-72
2021/09/02 12:18:10;;;;;;;12.30;6.87;;;25.00;49.00;;;;;;5013027;28;20820;-73
2021/09/02 12:20:39;;;;;;;7.90;5.20;;;25.40;49.40;;;;;;5005319;28;20890;-72
2021/09/02 12:23:23;;;;;;;29.40;16.17;;;25.70;47.50;;;;;;5012882;28;20442;-74
2021/09/02 12:26:02;;;;;;;7.83;5.87;;;25.70;46.90;;;;;;5012911;28;20416;-73
2021/09/02 12:28:42;;;;;;;13.77;8.13;;;25.70;46.70;;;;;;5012205;28;20433;-71
2021/09/02 12:31:16;;;;;;;8.67;6.30;;;25.70;47.90;;;;;;5013201;28;20500;-72
2021/09/02 12:33:54;;;;;;;8.70;6.00;;;25.80;46.50;;;;;;5011578;28;20823;-72
2021/09/02 12:36:20;;;;;;;13.43;8.40;;;25.80;45.50;;;;;;5013015;28;20869;-73
2021/09/02 12:38:46;;;;;;;9.10;6.10;;;25.70;45.40;;;;;;5012120;28;20426;-72